Ak-Bajtal, Uzbekistan
Current Conditions -  °F | °C
As of 10:00 AM on Friday 31 Oct 2014 (Local Time) from UAOO Reporting Station
Clear Clear  
Wind Chill: 28°   Ceiling: Unl
Heat Index: 37°   Visibility: 6mi
Dew Point: 28°   Wind: 16mph
Humidity: 70%   Direction: 60°ENE
Pressure: 30.42"   Gusts: NA
Location:  43.15°N, 64.33°E
Report Text: UAOO 310500Z 06007MPS 020V080 CAVOK 03/M02 Q1030 R06/CLRD70NOSIG RMK QFE761/1014
Loading
Personal Weather Stations






























Interactive Weather Map
Tropical Storm Tracking
New forecast layout! Learn more

10-Day Weather Forecast

Advertisements
Track Severe Weather on mobile